sensor_id;sensor_type;location;lat;lon;timestamp;temperature;humidity
15121;DHT22;7661;48.904;9.414;2023-05-07T00:01:13;15.30;99.90
15121;DHT22;7661;48.904;9.414;2023-05-07T00:03:40;15.30;99.90
15121;DHT22;7661;48.904;9.414;2023-05-07T00:06:07;15.30;99.90
15121;DHT22;7661;48.904;9.414;2023-05-07T00:08:35;15.40;99.90
15121;DHT22;7661;48.904;9.414;2023-05-07T00:11:04;15.40;99.90
15121;DHT22;7661;48.904;9.414;2023-05-07T00:13:31;15.30;99.90
15121;DHT22;7661;48.904;9.414;2023-05-07T00:16:00;15.30;99.90
15121;DHT22;7661;48.904;9.414;2023-05-07T00:18:28;15.30;99.90
15121;DHT22;7661;48.904;9.414;2023-05-07T00:20:55;15.30;99.90
15121;DHT22;7661;48.904;9.414;2023-05-07T00:23:22;15.20;99.90
15121;DHT22;7661;48.904;9.414;2023-05-07T00:25:49;15.20;99.90
15121;DHT22;7661;48.904;9.414;2023-05-07T00:28:17;15.10;99.90
15121;DHT22;7661;48.904;9.414;2023-05-07T00:30:44;15.00;99.90
15121;DHT22;7661;48.904;9.414;2023-05-07T00:33:11;15.00;99.90
15121;DHT22;7661;48.904;9.414;2023-05-07T00:35:39;15.00;99.90
15121;DHT22;7661;48.904;9.414;2023-05-07T00:38:05;15.00;99.90
15121;DHT22;7661;48.904;9.414;2023-05-07T00:40:32;15.00;99.90
15121;DHT22;7661;48.904;9.414;2023-05-07T00:43:00;15.00;99.90
15121;DHT22;7661;48.904;9.414;2023-05-07T00:45:29;15.00;99.90
15121;DHT22;7661;48.904;9.414;2023-05-07T00:47:57;14.90;99.90
15121;DHT22;7661;48.904;9.414;2023-05-07T00:50:24;14.80;99.90
15121;DHT22;7661;48.904;9.414;2023-05-07T00:52:52;14.80;99.90
15121;DHT22;7661;48.904;9.414;2023-05-07T00:55:22;14.80;99.90
15121;DHT22;7661;48.904;9.414;2023-05-07T00:57:50;14.70;99.90
15121;DHT22;7661;48.904;9.414;2023-05-07T01:00:18;14.60;99.90
15121;DHT22;7661;48.904;9.414;2023-05-07T01:02:46;14.60;99.90
15121;DHT22;7661;48.904;9.414;2023-05-07T01:05:16;14.60;99.90
15121;DHT22;7661;48.904;9.414;2023-05-07T01:07:44;14.60;99.90
15121;DHT22;7661;48.904;9.414;2023-05-07T01:10:12;14.60;99.90
15121;DHT22;7661;48.904;9.414;2023-05-07T01:12:41;14.60;99.90
15121;DHT22;7661;48.904;9.414;2023-05-07T01:15:09;14.50;99.90
15121;DHT22;7661;48.904;9.414;2023-05-07T01:17:37;14.50;99.90
15121;DHT22;7661;48.904;9.414;2023-05-07T01:20:08;14.40;99.90
15121;DHT22;7661;48.904;9.414;2023-05-07T01:22:38;14.40;99.90
15121;DHT22;7661;48.904;9.414;2023-05-07T01:25:06;14.30;99.90
15121;DHT22;7661;48.904;9.414;2023-05-07T01:27:34;14.30;99.90
15121;DHT22;7661;48.904;9.414;2023-05-07T01:30:02;14.30;99.90
15121;DHT22;7661;48.904;9.414;2023-05-07T01:32:32;14.30;99.90
15121;DHT22;7661;48.904;9.414;2023-05-07T01:35:01;14.30;99.90
15121;DHT22;7661;48.904;9.414;2023-05-07T01:37:29;14.40;99.90
15121;DHT22;7661;48.904;9.414;2023-05-07T01:39:57;14.40;99.90
15121;DHT22;7661;48.904;9.414;2023-05-07T01:42:25;14.30;99.90
15121;DHT22;7661;48.904;9.414;2023-05-07T01:44:52;14.30;99.90
15121;DHT22;7661;48.904;9.414;2023-05-07T01:47:19;14.30;99.90
15121;DHT22;7661;48.904;9.414;2023-05-07T01:49:47;14.20;99.90
15121;DHT22;7661;48.904;9.414;2023-05-07T01:52:14;14.20;99.90
15121;DHT22;7661;48.904;9.414;2023-05-07T01:54:41;14.20;99.90
15121;DHT22;7661;48.904;9.414;2023-05-07T01:57:10;14.20;99.90
15121;DHT22;7661;48.904;9.414;2023-05-07T01:59:37;14.20;99.90
15121;DHT22;7661;48.904;9.414;2023-05-07T02:02:04;14.20;99.90
15121;DHT22;7661;48.904;9.414;2023-05-07T02:04:31;14.10;99.90
15121;DHT22;7661;48.904;9.414;2023-05-07T02:06:58;14.20;99.90
15121;DHT22;7661;48.904;9.414;2023-05-07T02:09:25;14.20;99.90
15121;DHT22;7661;48.904;9.414;2023-05-07T02:11:52;14.10;99.90
15121;DHT22;7661;48.904;9.414;2023-05-07T02:14:20;14.10;99.90
15121;DHT22;7661;48.904;9.414;2023-05-07T02:16:47;14.00;99.90
15121;DHT22;7661;48.904;9.414;2023-05-07T02:19:14;14.10;99.90
15121;DHT22;7661;48.904;9.414;2023-05-07T02:21:41;14.00;99.90
15121;DHT22;7661;48.904;9.414;2023-05-07T02:24:08;14.00;99.90
15121;DHT22;7661;48.904;9.414;2023-05-07T02:26:35;14.00;99.90
15121;DHT22;7661;48.904;9.414;2023-05-07T02:29:03;14.00;99.90
15121;DHT22;7661;48.904;9.414;2023-05-07T02:31:31;13.90;99.90
15121;DHT22;7661;48.904;9.414;2023-05-07T02:33:59;13.90;99.90
15121;DHT22;7661;48.904;9.414;2023-05-07T02:36:26;13.90;99.90
15121;DHT22;7661;48.904;9.414;2023-05-07T02:38:53;13.80;99.90
15121;DHT22;7661;48.904;9.414;2023-05-07T02:41:20;13.80;99.90
15121;DHT22;7661;48.904;9.414;2023-05-07T02:43:47;13.70;99.90
15121;DHT22;7661;48.904;9.414;2023-05-07T02:46:14;13.70;99.90
15121;DHT22;7661;48.904;9.414;2023-05-07T02:48:43;13.70;99.90
15121;DHT22;7661;48.904;9.414;2023-05-07T02:51:10;13.60;99.90
15121;DHT22;7661;48.904;9.414;2023-05-07T02:53:37;13.60;99.90
15121;DHT22;7661;48.904;9.414;2023-05-07T02:56:04;13.60;99.90
15121;DHT22;7661;48.904;9.414;2023-05-07T02:58:31;13.60;99.90
15121;DHT22;7661;48.904;9.414;2023-05-07T03:00:58;13.50;99.90
15121;DHT22;7661;48.904;9.414;2023-05-07T03:03:25;13.50;99.90
15121;DHT22;7661;48.904;9.414;2023-05-07T03:05:54;13.40;99.90
15121;DHT22;7661;48.904;9.414;2023-05-07T03:08:21;13.40;99.90
15121;DHT22;7661;48.904;9.414;2023-05-07T03:10:49;13.40;99.90
15121;DHT22;7661;48.904;9.414;2023-05-07T03:13:16;13.40;99.90
15121;DHT22;7661;48.904;9.414;2023-05-07T03:15:43;13.30;99.90
15121;DHT22;7661;48.904;9.414;2023-05-07T03:18:10;13.40;99.90
15121;DHT22;7661;48.904;9.414;2023-05-07T03:20:37;13.30;99.90
15121;DHT22;7661;48.904;9.414;2023-05-07T03:23:05;13.20;99.90
15121;DHT22;7661;48.904;9.414;2023-05-07T03:25:32;13.20;99.90
15121;DHT22;7661;48.904;9.414;2023-05-07T03:27:59;13.20;99.90
15121;DHT22;7661;48.904;9.414;2023-05-07T03:30:26;13.10;99.90
15121;DHT22;7661;48.904;9.414;2023-05-07T03:32:53;13.20;99.90
15121;DHT22;7661;48.904;9.414;2023-05-07T03:35:20;13.10;99.90
15121;DHT22;7661;48.904;9.414;2023-05-07T03:37:47;13.10;99.90
15121;DHT22;7661;48.904;9.414;2023-05-07T03:40:15;13.10;99.90
15121;DHT22;7661;48.904;9.414;2023-05-07T03:42:42;13.10;99.90
15121;DHT22;7661;48.904;9.414;2023-05-07T03:45:09;13.00;99.90
15121;DHT22;7661;48.904;9.414;2023-05-07T03:47:36;13.00;99.90
15121;DHT22;7661;48.904;9.414;2023-05-07T03:50:04;12.90;99.90
15121;DHT22;7661;48.904;9.414;2023-05-07T03:52:31;12.90;99.90
15121;DHT22;7661;48.904;9.414;2023-05-07T03:54:58;12.90;99.90
15121;DHT22;7661;48.904;9.414;2023-05-07T03:57:26;12.90;99.90
15121;DHT22;7661;48.904;9.414;2023-05-07T03:59:53;12.80;99.90
15121;DHT22;7661;48.904;9.414;2023-05-07T04:02:20;12.80;99.90
15121;DHT22;7661;48.904;9.414;2023-05-07T04:04:48;12.80;99.90
15121;DHT22;7661;48.904;9.414;2023-05-07T04:07:15;12.70;99.90
15121;DHT22;7661;48.904;9.414;2023-05-07T04:09:42;12.70;99.90
15121;DHT22;7661;48.904;9.414;2023-05-07T04:12:09;12.70;99.90
15121;DHT22;7661;48.904;9.414;2023-05-07T04:14:38;12.70;99.90
15121;DHT22;7661;48.904;9.414;2023-05-07T04:17:05;12.80;99.90
15121;DHT22;7661;48.904;9.414;2023-05-07T04:19:33;12.80;99.90
15121;DHT22;7661;48.904;9.414;2023-05-07T04:22:00;12.80;99.90
15121;DHT22;7661;48.904;9.414;2023-05-07T04:24:28;12.80;99.90
15121;DHT22;7661;48.904;9.414;2023-05-07T04:26:57;12.90;99.90
15121;DHT22;7661;48.904;9.414;2023-05-07T04:29:24;12.90;99.90
15121;DHT22;7661;48.904;9.414;2023-05-07T04:31:52;12.90;99.90
15121;DHT22;7661;48.904;9.414;2023-05-07T04:34:21;13.00;99.90
15121;DHT22;7661;48.904;9.414;2023-05-07T04:36:48;13.00;99.90
15121;DHT22;7661;48.904;9.414;2023-05-07T04:39:15;13.00;99.90
15121;DHT22;7661;48.904;9.414;2023-05-07T04:41:42;13.10;99.90
15121;DHT22;7661;48.904;9.414;2023-05-07T04:44:09;13.10;99.90
15121;DHT22;7661;48.904;9.414;2023-05-07T04:46:36;13.20;99.90
15121;DHT22;7661;48.904;9.414;2023-05-07T04:49:04;13.20;99.90
15121;DHT22;7661;48.904;9.414;2023-05-07T04:51:31;13.40;99.90
15121;DHT22;7661;48.904;9.414;2023-05-07T04:53:58;13.40;99.90
15121;DHT22;7661;48.904;9.414;2023-05-07T04:56:27;13.50;99.90
15121;DHT22;7661;48.904;9.414;2023-05-07T04:58:55;13.50;99.90
15121;DHT22;7661;48.904;9.414;2023-05-07T05:01:22;13.60;99.90
15121;DHT22;7661;48.904;9.414;2023-05-07T05:03:49;13.60;99.90
15121;DHT22;7661;48.904;9.414;2023-05-07T05:06:17;13.70;99.90
15121;DHT22;7661;48.904;9.414;2023-05-07T05:08:44;13.70;99.90
15121;DHT22;7661;48.904;9.414;2023-05-07T05:11:11;13.80;99.90
15121;DHT22;7661;48.904;9.414;2023-05-07T05:13:38;13.80;99.90
15121;DHT22;7661;48.904;9.414;2023-05-07T05:16:05;13.80;99.90
15121;DHT22;7661;48.904;9.414;2023-05-07T05:18:32;13.80;99.90
15121;DHT22;7661;48.904;9.414;2023-05-07T05:20:59;13.80;99.90
15121;DHT22;7661;48.904;9.414;2023-05-07T05:23:28;13.70;99.90
15121;DHT22;7661;48.904;9.414;2023-05-07T05:25:55;13.70;99.90
15121;DHT22;7661;48.904;9.414;2023-05-07T05:28:23;13.80;99.90
15121;DHT22;7661;48.904;9.414;2023-05-07T05:30:50;13.70;99.90
15121;DHT22;7661;48.904;9.414;2023-05-07T05:33:17;13.80;99.90
15121;DHT22;7661;48.904;9.414;2023-05-07T05:35:44;13.80;99.90
15121;DHT22;7661;48.904;9.414;2023-05-07T05:38:11;13.80;99.90
15121;DHT22;7661;48.904;9.414;2023-05-07T05:40:39;13.90;99.90
15121;DHT22;7661;48.904;9.414;2023-05-07T05:43:06;13.90;99.90
15121;DHT22;7661;48.904;9.414;2023-05-07T05:45:33;14.00;99.90
15121;DHT22;7661;48.904;9.414;2023-05-07T05:48:00;14.10;99.90
15121;DHT22;7661;48.904;9.414;2023-05-07T05:50:27;14.20;99.90
15121;DHT22;7661;48.904;9.414;2023-05-07T05:52:54;14.40;99.90
15121;DHT22;7661;48.904;9.414;2023-05-07T05:55:22;14.50;99.90
15121;DHT22;7661;48.904;9.414;2023-05-07T05:57:50;14.60;99.90
15121;DHT22;7661;48.904;9.414;2023-05-07T06:00:17;14.80;99.90
15121;DHT22;7661;48.904;9.414;2023-05-07T06:02:44;14.90;99.90
15121;DHT22;7661;48.904;9.414;2023-05-07T06:05:11;15.00;99.90
15121;DHT22;7661;48.904;9.414;2023-05-07T06:07:38;15.10;99.90
15121;DHT22;7661;48.904;9.414;2023-05-07T06:10:06;15.30;99.90
15121;DHT22;7661;48.904;9.414;2023-05-07T06:12:33;15.50;99.90
15121;DHT22;7661;48.904;9.414;2023-05-07T06:15:01;15.70;99.90
15121;DHT22;7661;48.904;9.414;2023-05-07T06:17:29;15.80;99.90
15121;DHT22;7661;48.904;9.414;2023-05-07T06:19:57;15.90;99.90
15121;DHT22;7661;48.904;9.414;2023-05-07T06:22:24;16.10;99.90
15121;DHT22;7661;48.904;9.414;2023-05-07T06:24:51;16.20;99.90
15121;DHT22;7661;48.904;9.414;2023-05-07T06:27:18;16.30;99.90
15121;DHT22;7661;48.904;9.414;2023-05-07T06:29:45;16.50;99.90
15121;DHT22;7661;48.904;9.414;2023-05-07T06:32:14;16.50;99.90
15121;DHT22;7661;48.904;9.414;2023-05-07T06:34:41;16.60;99.90
15121;DHT22;7661;48.904;9.414;2023-05-07T06:37:08;16.70;99.90
15121;DHT22;7661;48.904;9.414;2023-05-07T06:39:35;16.80;99.90
15121;DHT22;7661;48.904;9.414;2023-05-07T06:42:02;16.80;99.90
15121;DHT22;7661;48.904;9.414;2023-05-07T06:44:30;16.90;99.90
15121;DHT22;7661;48.904;9.414;2023-05-07T06:46:57;17.00;99.90
15121;DHT22;7661;48.904;9.414;2023-05-07T06:49:25;17.20;99.90
15121;DHT22;7661;48.904;9.414;2023-05-07T06:51:52;17.40;99.90
15121;DHT22;7661;48.904;9.414;2023-05-07T06:54:19;17.60;99.90
15121;DHT22;7661;48.904;9.414;2023-05-07T06:56:46;17.60;99.90
15121;DHT22;7661;48.904;9.414;2023-05-07T06:59:13;17.70;99.90
15121;DHT22;7661;48.904;9.414;2023-05-07T07:01:40;17.80;99.90
15121;DHT22;7661;48.904;9.414;2023-05-07T07:04:07;17.90;99.90
15121;DHT22;7661;48.904;9.414;2023-05-07T07:06:36;18.00;99.90
15121;DHT22;7661;48.904;9.414;2023-05-07T07:09:03;18.10;99.90
15121;DHT22;7661;48.904;9.414;2023-05-07T07:11:29;18.30;99.90
15121;DHT22;7661;48.904;9.414;2023-05-07T07:13:56;18.50;99.90
15121;DHT22;7661;48.904;9.414;2023-05-07T07:16:24;18.60;99.90
15121;DHT22;7661;48.904;9.414;2023-05-07T07:18:51;18.80;99.90
15121;DHT22;7661;48.904;9.414;2023-05-07T07:21:18;19.10;99.90
15121;DHT22;7661;48.904;9.414;2023-05-07T07:23:47;19.40;99.90
15121;DHT22;7661;48.904;9.414;2023-05-07T07:26:14;19.60;99.90
15121;DHT22;7661;48.904;9.414;2023-05-07T07:28:44;19.70;99.90
15121;DHT22;7661;48.904;9.414;2023-05-07T07:31:11;19.70;99.90
15121;DHT22;7661;48.904;9.414;2023-05-07T07:33:38;19.80;99.90
15121;DHT22;7661;48.904;9.414;2023-05-07T07:36:06;19.80;99.90
15121;DHT22;7661;48.904;9.414;2023-05-07T07:38:33;19.90;99.90
15121;DHT22;7661;48.904;9.414;2023-05-07T07:41:02;20.10;99.90
15121;DHT22;7661;48.904;9.414;2023-05-07T07:43:29;20.30;99.90
15121;DHT22;7661;48.904;9.414;2023-05-07T07:45:55;20.40;99.90
15121;DHT22;7661;48.904;9.414;2023-05-07T07:48:22;20.40;99.90
15121;DHT22;7661;48.904;9.414;2023-05-07T07:50:50;20.30;99.90
15121;DHT22;7661;48.904;9.414;2023-05-07T07:53:17;20.30;99.90
15121;DHT22;7661;48.904;9.414;2023-05-07T07:55:45;20.40;99.90
15121;DHT22;7661;48.904;9.414;2023-05-07T07:58:13;20.50;99.90
15121;DHT22;7661;48.904;9.414;2023-05-07T08:00:41;20.70;99.90
15121;DHT22;7661;48.904;9.414;2023-05-07T08:03:09;21.00;99.90
15121;DHT22;7661;48.904;9.414;2023-05-07T08:05:36;21.00;99.90
15121;DHT22;7661;48.904;9.414;2023-05-07T08:08:04;21.00;99.90
15121;DHT22;7661;48.904;9.414;2023-05-07T08:10:32;21.00;99.90
15121;DHT22;7661;48.904;9.414;2023-05-07T08:13:00;21.00;99.90
15121;DHT22;7661;48.904;9.414;2023-05-07T08:15:30;20.90;99.90
15121;DHT22;7661;48.904;9.414;2023-05-07T08:17:58;21.00;99.90
15121;DHT22;7661;48.904;9.414;2023-05-07T08:20:25;20.90;99.90
15121;DHT22;7661;48.904;9.414;2023-05-07T08:22:52;20.90;99.90
15121;DHT22;7661;48.904;9.414;2023-05-07T08:25:19;20.90;99.90
15121;DHT22;7661;48.904;9.414;2023-05-07T08:27:46;20.90;99.90
15121;DHT22;7661;48.904;9.414;2023-05-07T08:30:14;20.90;99.90
15121;DHT22;7661;48.904;9.414;2023-05-07T08:32:42;21.00;99.90
15121;DHT22;7661;48.904;9.414;2023-05-07T08:35:09;21.10;99.90
15121;DHT22;7661;48.904;9.414;2023-05-07T08:37:36;21.20;99.90
15121;DHT22;7661;48.904;9.414;2023-05-07T08:40:04;21.30;99.90
15121;DHT22;7661;48.904;9.414;2023-05-07T08:42:33;21.30;99.90
15121;DHT22;7661;48.904;9.414;2023-05-07T08:45:03;21.40;99.90
15121;DHT22;7661;48.904;9.414;2023-05-07T08:47:43;21.40;99.90
15121;DHT22;7661;48.904;9.414;2023-05-07T08:50:12;21.50;99.90
15121;DHT22;7661;48.904;9.414;2023-05-07T08:52:40;21.50;99.90
15121;DHT22;7661;48.904;9.414;2023-05-07T08:55:08;21.50;99.90
15121;DHT22;7661;48.904;9.414;2023-05-07T08:57:35;21.60;99.90
15121;DHT22;7661;48.904;9.414;2023-05-07T09:00:02;21.60;99.90
15121;DHT22;7661;48.904;9.414;2023-05-07T09:02:30;21.70;99.90
15121;DHT22;7661;48.904;9.414;2023-05-07T09:04:57;21.90;99.90
15121;DHT22;7661;48.904;9.414;2023-05-07T09:07:25;22.10;99.90
15121;DHT22;7661;48.904;9.414;2023-05-07T09:09:52;22.20;99.90
15121;DHT22;7661;48.904;9.414;2023-05-07T09:12:21;22.40;99.90
15121;DHT22;7661;48.904;9.414;2023-05-07T09:14:48;22.70;99.90
15121;DHT22;7661;48.904;9.414;2023-05-07T09:17:15;23.00;99.90
15121;DHT22;7661;48.904;9.414;2023-05-07T09:19:44;23.20;99.90
15121;DHT22;7661;48.904;9.414;2023-05-07T09:22:12;23.40;99.90
15121;DHT22;7661;48.904;9.414;2023-05-07T09:24:40;23.80;99.90
15121;DHT22;7661;48.904;9.414;2023-05-07T09:27:07;24.10;99.90
15121;DHT22;7661;48.904;9.414;2023-05-07T09:29:38;24.40;99.90
15121;DHT22;7661;48.904;9.414;2023-05-07T09:32:06;24.70;99.90
15121;DHT22;7661;48.904;9.414;2023-05-07T09:34:34;25.00;99.90
15121;DHT22;7661;48.904;9.414;2023-05-07T09:37:02;25.20;99.90
15121;DHT22;7661;48.904;9.414;2023-05-07T09:39:40;25.40;99.90
15121;DHT22;7661;48.904;9.414;2023-05-07T09:42:08;25.60;99.90
15121;DHT22;7661;48.904;9.414;2023-05-07T09:44:36;25.90;99.90
15121;DHT22;7661;48.904;9.414;2023-05-07T09:47:05;25.70;99.90
15121;DHT22;7661;48.904;9.414;2023-05-07T09:49:35;25.80;99.90
15121;DHT22;7661;48.904;9.414;2023-05-07T09:52:04;25.80;99.60
15121;DHT22;7661;48.904;9.414;2023-05-07T09:54:32;25.70;98.40
15121;DHT22;7661;48.904;9.414;2023-05-07T09:57:01;25.80;99.90
15121;DHT22;7661;48.904;9.414;2023-05-07T09:59:30;26.20;99.90
15121;DHT22;7661;48.904;9.414;2023-05-07T10:01:59;26.60;99.10
15121;DHT22;7661;48.904;9.414;2023-05-07T10:04:27;27.10;98.60
15121;DHT22;7661;48.904;9.414;2023-05-07T10:06:54;27.40;97.80
15121;DHT22;7661;48.904;9.414;2023-05-07T10:09:23;27.70;96.40
15121;DHT22;7661;48.904;9.414;2023-05-07T10:11:51;27.90;96.10
15121;DHT22;7661;48.904;9.414;2023-05-07T10:14:20;28.20;96.00
15121;DHT22;7661;48.904;9.414;2023-05-07T10:16:48;28.00;94.20
15121;DHT22;7661;48.904;9.414;2023-05-07T10:19:15;27.80;94.60
15121;DHT22;7661;48.904;9.414;2023-05-07T10:21:48;27.40;93.90
15121;DHT22;7661;48.904;9.414;2023-05-07T10:24:20;27.40;95.50
15121;DHT22;7661;48.904;9.414;2023-05-07T10:26:50;27.50;95.10
15121;DHT22;7661;48.904;9.414;2023-05-07T10:29:28;27.70;92.30
15121;DHT22;7661;48.904;9.414;2023-05-07T10:32:00;27.40;92.80
15121;DHT22;7661;48.904;9.414;2023-05-07T10:34:36;27.50;93.00
15121;DHT22;7661;48.904;9.414;2023-05-07T10:37:03;27.60;92.50
15121;DHT22;7661;48.904;9.414;2023-05-07T10:39:30;27.60;91.30
15121;DHT22;7661;48.904;9.414;2023-05-07T10:42:07;27.60;91.10
15121;DHT22;7661;48.904;9.414;2023-05-07T10:44:36;27.80;91.40
15121;DHT22;7661;48.904;9.414;2023-05-07T10:47:05;27.70;91.20
15121;DHT22;7661;48.904;9.414;2023-05-07T10:49:34;27.70;91.30
15121;DHT22;7661;48.904;9.414;2023-05-07T10:52:17;27.90;91.90
15121;DHT22;7661;48.904;9.414;2023-05-07T10:54:44;28.50;91.40
15121;DHT22;7661;48.904;9.414;2023-05-07T10:57:42;28.90;90.10
15121;DHT22;7661;48.904;9.414;2023-05-07T11:00:45;29.00;88.20
15121;DHT22;7661;48.904;9.414;2023-05-07T11:03:12;28.90;87.40
15121;DHT22;7661;48.904;9.414;2023-05-07T11:05:41;28.90;88.50
15121;DHT22;7661;48.904;9.414;2023-05-07T11:08:09;29.20;88.80
15121;DHT22;7661;48.904;9.414;2023-05-07T11:10:50;29.30;86.90
15121;DHT22;7661;48.904;9.414;2023-05-07T11:16:03;29.00;84.60
15121;DHT22;7661;48.904;9.414;2023-05-07T11:18:46;28.80;83.70
15121;DHT22;7661;48.904;9.414;2023-05-07T11:21:31;28.90;82.30
15121;DHT22;7661;48.904;9.414;2023-05-07T11:23:59;29.00;84.00
15121;DHT22;7661;48.904;9.414;2023-05-07T11:26:28;29.00;81.90
15121;DHT22;7661;48.904;9.414;2023-05-07T11:28:55;29.00;83.90
15121;DHT22;7661;48.904;9.414;2023-05-07T11:31:26;29.00;82.30
15121;DHT22;7661;48.904;9.414;2023-05-07T11:33:54;29.00;82.70
15121;DHT22;7661;48.904;9.414;2023-05-07T11:36:23;28.90;81.10
15121;DHT22;7661;48.904;9.414;2023-05-07T11:38:50;29.00;83.00
15121;DHT22;7661;48.904;9.414;2023-05-07T11:41:17;29.00;80.70
15121;DHT22;7661;48.904;9.414;2023-05-07T11:43:59;29.10;81.40
15121;DHT22;7661;48.904;9.414;2023-05-07T11:46:28;29.30;82.70
15121;DHT22;7661;48.904;9.414;2023-05-07T11:48:56;29.50;83.30
15121;DHT22;7661;48.904;9.414;2023-05-07T11:51:24;29.50;77.80
15121;DHT22;7661;48.904;9.414;2023-05-07T11:53:52;29.40;81.30
15121;DHT22;7661;48.904;9.414;2023-05-07T11:56:20;29.20;78.80
15121;DHT22;7661;48.904;9.414;2023-05-07T11:58:47;28.80;80.40
15121;DHT22;7661;48.904;9.414;2023-05-07T12:01:15;28.60;79.90
15121;DHT22;7661;48.904;9.414;2023-05-07T12:03:45;28.10;79.80
15121;DHT22;7661;48.904;9.414;2023-05-07T12:06:14;27.80;79.80
15121;DHT22;7661;48.904;9.414;2023-05-07T12:08:43;27.70;82.10
15121;DHT22;7661;48.904;9.414;2023-05-07T12:11:14;27.70;80.30
15121;DHT22;7661;48.904;9.414;2023-05-07T12:13:41;27.50;80.50
15121;DHT22;7661;48.904;9.414;2023-05-07T12:16:09;27.30;79.00
15121;DHT22;7661;48.904;9.414;2023-05-07T12:18:36;26.90;78.40
15121;DHT22;7661;48.904;9.414;2023-05-07T12:21:06;26.80;79.30
15121;DHT22;7661;48.904;9.414;2023-05-07T12:23:34;26.60;78.70
15121;DHT22;7661;48.904;9.414;2023-05-07T12:26:02;26.30;78.30
15121;DHT22;7661;48.904;9.414;2023-05-07T12:28:29;26.20;79.30
15121;DHT22;7661;48.904;9.414;2023-05-07T12:30:57;26.10;80.50
15121;DHT22;7661;48.904;9.414;2023-05-07T12:33:25;26.10;82.40
15121;DHT22;7661;48.904;9.414;2023-05-07T12:35:55;26.10;83.60
15121;DHT22;7661;48.904;9.414;2023-05-07T12:38:23;26.00;83.60
15121;DHT22;7661;48.904;9.414;2023-05-07T12:40:54;26.00;84.70
15121;DHT22;7661;48.904;9.414;2023-05-07T12:43:24;25.90;84.40
15121;DHT22;7661;48.904;9.414;2023-05-07T12:45:53;25.80;84.90
15121;DHT22;7661;48.904;9.414;2023-05-07T12:48:21;25.80;85.50
15121;DHT22;7661;48.904;9.414;2023-05-07T12:50:49;25.70;87.50
15121;DHT22;7661;48.904;9.414;2023-05-07T12:53:16;25.70;89.20
15121;DHT22;7661;48.904;9.414;2023-05-07T12:55:48;25.70;88.60
15121;DHT22;7661;48.904;9.414;2023-05-07T12:58:17;25.60;90.40
15121;DHT22;7661;48.904;9.414;2023-05-07T13:00:48;25.50;91.00
15121;DHT22;7661;48.904;9.414;2023-05-07T13:03:23;25.40;91.50
15121;DHT22;7661;48.904;9.414;2023-05-07T13:05:54;25.20;92.30
15121;DHT22;7661;48.904;9.414;2023-05-07T13:08:37;25.00;92.30
15121;DHT22;7661;48.904;9.414;2023-05-07T13:11:14;24.90;93.00
15121;DHT22;7661;48.904;9.414;2023-05-07T13:13:41;24.70;93.40
15121;DHT22;7661;48.904;9.414;2023-05-07T13:16:09;24.50;93.60
15121;DHT22;7661;48.904;9.414;2023-05-07T13:18:38;24.40;93.50
15121;DHT22;7661;48.904;9.414;2023-05-07T13:21:09;24.30;93.40
15121;DHT22;7661;48.904;9.414;2023-05-07T13:23:38;24.10;94.20
15121;DHT22;7661;48.904;9.414;2023-05-07T13:26:06;24.00;94.10
15121;DHT22;7661;48.904;9.414;2023-05-07T13:28:36;23.90;94.10
15121;DHT22;7661;48.904;9.414;2023-05-07T13:31:03;23.80;94.70
15121;DHT22;7661;48.904;9.414;2023-05-07T13:33:32;23.60;95.40
15121;DHT22;7661;48.904;9.414;2023-05-07T13:36:13;23.50;95.60
15121;DHT22;7661;48.904;9.414;2023-05-07T13:38:43;23.30;95.50
15121;DHT22;7661;48.904;9.414;2023-05-07T13:41:12;23.10;97.00
15121;DHT22;7661;48.904;9.414;2023-05-07T13:43:44;22.60;97.70
15121;DHT22;7661;48.904;9.414;2023-05-07T13:46:12;22.10;99.40
15121;DHT22;7661;48.904;9.414;2023-05-07T13:48:43;21.40;99.90
15121;DHT22;7661;48.904;9.414;2023-05-07T13:51:11;21.00;99.90
15121;DHT22;7661;48.904;9.414;2023-05-07T13:53:47;20.70;99.90
15121;DHT22;7661;48.904;9.414;2023-05-07T13:56:16;20.70;99.90
15121;DHT22;7661;48.904;9.414;2023-05-07T13:59:02;20.80;99.90
15121;DHT22;7661;48.904;9.414;2023-05-07T14:01:30;20.80;99.90
15121;DHT22;7661;48.904;9.414;2023-05-07T14:03:57;20.70;99.90
15121;DHT22;7661;48.904;9.414;2023-05-07T14:06:25;20.70;99.90
15121;DHT22;7661;48.904;9.414;2023-05-07T14:08:52;20.60;99.90
15121;DHT22;7661;48.904;9.414;2023-05-07T14:11:23;20.50;99.90
15121;DHT22;7661;48.904;9.414;2023-05-07T14:13:51;20.60;99.90
15121;DHT22;7661;48.904;9.414;2023-05-07T14:16:21;20.50;99.90
15121;DHT22;7661;48.904;9.414;2023-05-07T14:18:50;20.50;99.90
15121;DHT22;7661;48.904;9.414;2023-05-07T14:21:17;20.30;99.90
15121;DHT22;7661;48.904;9.414;2023-05-07T14:23:56;20.20;99.90
15121;DHT22;7661;48.904;9.414;2023-05-07T14:26:23;20.00;99.90
15121;DHT22;7661;48.904;9.414;2023-05-07T14:28:52;19.90;99.90
15121;DHT22;7661;48.904;9.414;2023-05-07T14:31:21;19.60;99.90
15121;DHT22;7661;48.904;9.414;2023-05-07T14:33:48;19.40;99.90
15121;DHT22;7661;48.904;9.414;2023-05-07T14:36:16;19.40;99.90
15121;DHT22;7661;48.904;9.414;2023-05-07T14:38:43;19.30;99.90
15121;DHT22;7661;48.904;9.414;2023-05-07T14:41:10;19.00;99.90
15121;DHT22;7661;48.904;9.414;2023-05-07T14:43:36;18.80;99.90
15121;DHT22;7661;48.904;9.414;2023-05-07T14:46:03;18.70;99.90
15121;DHT22;7661;48.904;9.414;2023-05-07T14:48:31;18.70;99.90
15121;DHT22;7661;48.904;9.414;2023-05-07T14:50:58;18.50;99.90
15121;DHT22;7661;48.904;9.414;2023-05-07T14:53:25;18.10;99.90
15121;DHT22;7661;48.904;9.414;2023-05-07T14:55:52;18.00;99.90
15121;DHT22;7661;48.904;9.414;2023-05-07T14:58:19;17.90;99.90
15121;DHT22;7661;48.904;9.414;2023-05-07T15:00:46;17.90;99.90
15121;DHT22;7661;48.904;9.414;2023-05-07T15:03:13;17.90;99.90
15121;DHT22;7661;48.904;9.414;2023-05-07T15:05:41;17.90;99.90
15121;DHT22;7661;48.904;9.414;2023-05-07T15:08:08;17.90;99.90
15121;DHT22;7661;48.904;9.414;2023-05-07T15:10:36;17.90;99.90
15121;DHT22;7661;48.904;9.414;2023-05-07T15:13:06;17.90;99.90
15121;DHT22;7661;48.904;9.414;2023-05-07T15:15:33;18.10;99.90
15121;DHT22;7661;48.904;9.414;2023-05-07T15:18:00;18.30;99.90
15121;DHT22;7661;48.904;9.414;2023-05-07T15:20:27;18.30;99.90
15121;DHT22;7661;48.904;9.414;2023-05-07T15:22:56;18.40;99.90
15121;DHT22;7661;48.904;9.414;2023-05-07T15:25:23;18.40;99.90
15121;DHT22;7661;48.904;9.414;2023-05-07T15:27:50;18.50;99.90
15121;DHT22;7661;48.904;9.414;2023-05-07T15:30:18;18.40;99.90
15121;DHT22;7661;48.904;9.414;2023-05-07T15:32:45;18.50;99.90
15121;DHT22;7661;48.904;9.414;2023-05-07T15:35:12;18.60;99.90
15121;DHT22;7661;48.904;9.414;2023-05-07T15:37:39;18.60;99.90
15121;DHT22;7661;48.904;9.414;2023-05-07T15:40:08;18.60;99.90
15121;DHT22;7661;48.904;9.414;2023-05-07T15:42:36;18.60;99.90
15121;DHT22;7661;48.904;9.414;2023-05-07T15:45:03;18.60;99.90
15121;DHT22;7661;48.904;9.414;2023-05-07T15:47:32;18.60;99.90
15121;DHT22;7661;48.904;9.414;2023-05-07T15:50:00;18.60;99.90
15121;DHT22;7661;48.904;9.414;2023-05-07T15:52:27;18.70;99.90
15121;DHT22;7661;48.904;9.414;2023-05-07T15:54:53;18.70;99.90